sensor_id;sensor_type;location;lat;lon;timestamp;pressure;altitude;pressure_sealevel;temperature;humidity
11682;BME280;5897;42.640;23.310;2023-03-15T00:00:30;92911.56;;;6.95;51.76
11682;BME280;5897;42.640;23.310;2023-03-15T00:02:57;92904.44;;;6.88;52.37
11682;BME280;5897;42.640;23.310;2023-03-15T00:05:24;92898.88;;;6.83;53.21
11682;BME280;5897;42.640;23.310;2023-03-15T00:07:50;92904.41;;;6.76;54.09
11682;BME280;5897;42.640;23.310;2023-03-15T00:10:18;92895.84;;;6.68;54.12
11682;BME280;5897;42.640;23.310;2023-03-15T00:12:44;92897.44;;;6.66;54.18
11682;BME280;5897;42.640;23.310;2023-03-15T00:15:12;92899.97;;;6.57;54.62
11682;BME280;5897;42.640;23.310;2023-03-15T00:17:41;92908.34;;;6.59;54.69
11682;BME280;5897;42.640;23.310;2023-03-15T00:20:10;92907.09;;;6.63;52.87
11682;BME280;5897;42.640;23.310;2023-03-15T00:22:39;92890.28;;;6.47;56.36
11682;BME280;5897;42.640;23.310;2023-03-15T00:25:06;92897.84;;;6.64;54.90
11682;BME280;5897;42.640;23.310;2023-03-15T00:27:33;92896.47;;;6.72;54.21
11682;BME280;5897;42.640;23.310;2023-03-15T00:30:00;92894.13;;;6.74;54.09
11682;BME280;5897;42.640;23.310;2023-03-15T00:32:27;92898.00;;;6.86;53.07
11682;BME280;5897;42.640;23.310;2023-03-15T00:34:56;92893.84;;;6.97;55.53
11682;BME280;5897;42.640;23.310;2023-03-15T00:37:22;92882.75;;;6.95;53.88
11682;BME280;5897;42.640;23.310;2023-03-15T00:39:50;92890.06;;;7.07;54.10
11682;BME280;5897;42.640;23.310;2023-03-15T00:42:21;92892.00;;;7.19;52.05
11682;BME280;5897;42.640;23.310;2023-03-15T00:44:52;92896.63;;;7.06;51.81
11682;BME280;5897;42.640;23.310;2023-03-15T00:47:20;92888.56;;;7.06;52.27
11682;BME280;5897;42.640;23.310;2023-03-15T00:49:47;92877.72;;;7.10;52.36
11682;BME280;5897;42.640;23.310;2023-03-15T00:52:16;92884.50;;;7.14;51.75
11682;BME280;5897;42.640;23.310;2023-03-15T00:54:48;92878.81;;;7.12;51.80
11682;BME280;5897;42.640;23.310;2023-03-15T00:57:16;92879.34;;;7.07;51.82
11682;BME280;5897;42.640;23.310;2023-03-15T00:59:43;92876.47;;;7.14;52.17
11682;BME280;5897;42.640;23.310;2023-03-15T01:02:10;92867.31;;;7.12;51.65
11682;BME280;5897;42.640;23.310;2023-03-15T01:04:37;92855.81;;;7.11;52.83
11682;BME280;5897;42.640;23.310;2023-03-15T01:07:04;92850.25;;;7.06;53.85
11682;BME280;5897;42.640;23.310;2023-03-15T01:09:32;92852.72;;;7.13;54.02
11682;BME280;5897;42.640;23.310;2023-03-15T01:11:59;92855.94;;;7.20;53.78
11682;BME280;5897;42.640;23.310;2023-03-15T01:14:26;92851.53;;;7.26;52.58
11682;BME280;5897;42.640;23.310;2023-03-15T01:16:53;92847.66;;;6.90;54.54
11682;BME280;5897;42.640;23.310;2023-03-15T01:19:19;92852.59;;;6.91;54.06
11682;BME280;5897;42.640;23.310;2023-03-15T01:21:46;92846.78;;;6.93;54.55
11682;BME280;5897;42.640;23.310;2023-03-15T01:24:13;92841.09;;;6.91;53.92
11682;BME280;5897;42.640;23.310;2023-03-15T01:26:42;92841.13;;;7.03;53.34
11682;BME280;5897;42.640;23.310;2023-03-15T01:29:08;92828.00;;;7.05;53.76
11682;BME280;5897;42.640;23.310;2023-03-15T01:31:36;92832.63;;;7.17;53.93
11682;BME280;5897;42.640;23.310;2023-03-15T01:34:03;92825.53;;;7.23;53.73
11682;BME280;5897;42.640;23.310;2023-03-15T01:36:30;92824.56;;;7.30;53.05
11682;BME280;5897;42.640;23.310;2023-03-15T01:38:56;92828.13;;;7.02;53.54
11682;BME280;5897;42.640;23.310;2023-03-15T01:41:23;92820.78;;;7.02;53.79
11682;BME280;5897;42.640;23.310;2023-03-15T01:43:53;92825.22;;;7.09;54.08
11682;BME280;5897;42.640;23.310;2023-03-15T01:46:23;92819.28;;;7.01;54.40
11682;BME280;5897;42.640;23.310;2023-03-15T01:48:54;92822.81;;;6.61;56.63
11682;BME280;5897;42.640;23.310;2023-03-15T01:51:27;92817.66;;;6.66;56.47
11682;BME280;5897;42.640;23.310;2023-03-15T01:54:00;92806.72;;;6.73;55.37
11682;BME280;5897;42.640;23.310;2023-03-15T01:56:29;92803.19;;;6.76;54.90
11682;BME280;5897;42.640;23.310;2023-03-15T01:59:00;92803.22;;;6.89;54.67
11682;BME280;5897;42.640;23.310;2023-03-15T02:01:28;92802.75;;;6.90;54.82
11682;BME280;5897;42.640;23.310;2023-03-15T02:04:00;92796.53;;;6.93;55.75
11682;BME280;5897;42.640;23.310;2023-03-15T02:06:29;92790.53;;;7.02;55.78
11682;BME280;5897;42.640;23.310;2023-03-15T02:09:02;92793.09;;;7.05;55.43
11682;BME280;5897;42.640;23.310;2023-03-15T02:11:30;92786.44;;;7.10;55.74
11682;BME280;5897;42.640;23.310;2023-03-15T02:14:01;92778.81;;;7.08;56.66
11682;BME280;5897;42.640;23.310;2023-03-15T02:16:29;92779.66;;;7.05;56.64
11682;BME280;5897;42.640;23.310;2023-03-15T02:18:56;92773.22;;;7.03;57.28
11682;BME280;5897;42.640;23.310;2023-03-15T02:21:35;92761.94;;;6.95;57.54
11682;BME280;5897;42.640;23.310;2023-03-15T02:24:13;92770.34;;;6.97;57.16
11682;BME280;5897;42.640;23.310;2023-03-15T02:26:45;92765.06;;;6.94;57.00
11682;BME280;5897;42.640;23.310;2023-03-15T02:29:15;92761.72;;;7.02;57.17
11682;BME280;5897;42.640;23.310;2023-03-15T02:31:42;92746.19;;;6.85;57.78
11682;BME280;5897;42.640;23.310;2023-03-15T02:34:10;92767.78;;;6.81;57.67
11682;BME280;5897;42.640;23.310;2023-03-15T02:36:36;92764.13;;;6.75;57.58
11682;BME280;5897;42.640;23.310;2023-03-15T02:39:12;92758.63;;;6.79;57.72
11682;BME280;5897;42.640;23.310;2023-03-15T02:41:41;92767.78;;;6.81;58.06
11682;BME280;5897;42.640;23.310;2023-03-15T02:44:11;92765.94;;;6.78;58.13
11682;BME280;5897;42.640;23.310;2023-03-15T02:46:41;92768.06;;;6.71;59.37
11682;BME280;5897;42.640;23.310;2023-03-15T02:49:10;92770.56;;;6.65;59.34
11682;BME280;5897;42.640;23.310;2023-03-15T02:51:38;92761.22;;;6.57;58.86
11682;BME280;5897;42.640;23.310;2023-03-15T02:54:05;92757.00;;;6.56;58.43
11682;BME280;5897;42.640;23.310;2023-03-15T02:56:32;92759.06;;;6.52;58.01
11682;BME280;5897;42.640;23.310;2023-03-15T02:58:58;92739.84;;;6.41;58.64
11682;BME280;5897;42.640;23.310;2023-03-15T03:01:26;92767.31;;;6.33;59.27
11682;BME280;5897;42.640;23.310;2023-03-15T03:03:54;92753.38;;;6.38;59.24
11682;BME280;5897;42.640;23.310;2023-03-15T03:06:21;92755.72;;;6.23;59.84
11682;BME280;5897;42.640;23.310;2023-03-15T03:08:47;92742.81;;;6.31;58.79
11682;BME280;5897;42.640;23.310;2023-03-15T03:11:15;92733.41;;;6.39;59.33
11682;BME280;5897;42.640;23.310;2023-03-15T03:13:42;92734.16;;;6.39;59.66
11682;BME280;5897;42.640;23.310;2023-03-15T03:16:09;92736.81;;;6.39;60.22
11682;BME280;5897;42.640;23.310;2023-03-15T03:18:36;92737.66;;;6.24;63.68
11682;BME280;5897;42.640;23.310;2023-03-15T03:21:06;92727.69;;;6.12;64.64
11682;BME280;5897;42.640;23.310;2023-03-15T03:23:34;92717.47;;;6.07;63.49
11682;BME280;5897;42.640;23.310;2023-03-15T03:26:02;92728.88;;;6.11;63.99
11682;BME280;5897;42.640;23.310;2023-03-15T03:28:30;92721.13;;;6.13;62.91
11682;BME280;5897;42.640;23.310;2023-03-15T03:30:57;92732.09;;;6.31;62.13
11682;BME280;5897;42.640;23.310;2023-03-15T03:33:24;92729.34;;;6.34;62.75
11682;BME280;5897;42.640;23.310;2023-03-15T03:35:51;92720.41;;;6.37;62.40
11682;BME280;5897;42.640;23.310;2023-03-15T03:38:19;92718.19;;;6.48;60.52
11682;BME280;5897;42.640;23.310;2023-03-15T03:40:46;92715.19;;;6.46;61.97
11682;BME280;5897;42.640;23.310;2023-03-15T03:43:13;92708.28;;;6.45;61.06
11682;BME280;5897;42.640;23.310;2023-03-15T03:45:40;92707.44;;;6.48;60.89
11682;BME280;5897;42.640;23.310;2023-03-15T03:48:07;92709.59;;;6.53;60.21
11682;BME280;5897;42.640;23.310;2023-03-15T03:50:33;92713.91;;;6.63;59.80
11682;BME280;5897;42.640;23.310;2023-03-15T03:53:00;92713.00;;;6.54;60.59
11682;BME280;5897;42.640;23.310;2023-03-15T03:55:28;92709.91;;;6.55;60.41
11682;BME280;5897;42.640;23.310;2023-03-15T03:57:58;92705.50;;;6.36;61.84
11682;BME280;5897;42.640;23.310;2023-03-15T04:00:25;92700.88;;;6.37;62.37
11682;BME280;5897;42.640;23.310;2023-03-15T04:02:52;92682.53;;;6.23;62.46
11682;BME280;5897;42.640;23.310;2023-03-15T04:05:19;92693.19;;;6.39;62.94
11682;BME280;5897;42.640;23.310;2023-03-15T04:07:46;92685.97;;;6.48;62.24
11682;BME280;5897;42.640;23.310;2023-03-15T04:10:13;92688.25;;;6.50;61.66
11682;BME280;5897;42.640;23.310;2023-03-15T04:12:41;92688.00;;;6.44;61.42
11682;BME280;5897;42.640;23.310;2023-03-15T04:15:09;92690.59;;;6.48;61.94
11682;BME280;5897;42.640;23.310;2023-03-15T04:17:37;92685.13;;;6.51;62.17
11682;BME280;5897;42.640;23.310;2023-03-15T04:20:04;92687.59;;;6.58;61.53
11682;BME280;5897;42.640;23.310;2023-03-15T04:22:33;92690.16;;;6.49;61.75
11682;BME280;5897;42.640;23.310;2023-03-15T04:25:00;92683.41;;;6.57;61.73
11682;BME280;5897;42.640;23.310;2023-03-15T04:27:27;92676.09;;;6.45;62.03
11682;BME280;5897;42.640;23.310;2023-03-15T04:29:55;92691.00;;;6.59;61.84
11682;BME280;5897;42.640;23.310;2023-03-15T04:32:22;92688.97;;;6.63;61.76
11682;BME280;5897;42.640;23.310;2023-03-15T04:34:49;92684.69;;;6.65;61.44
11682;BME280;5897;42.640;23.310;2023-03-15T04:37:16;92677.06;;;6.64;60.70
11682;BME280;5897;42.640;23.310;2023-03-15T04:39:43;92681.34;;;6.61;59.87
11682;BME280;5897;42.640;23.310;2023-03-15T04:42:10;92683.31;;;6.61;59.61
11682;BME280;5897;42.640;23.310;2023-03-15T04:44:37;92682.66;;;6.69;59.77
11682;BME280;5897;42.640;23.310;2023-03-15T04:47:06;92685.66;;;6.71;60.04
11682;BME280;5897;42.640;23.310;2023-03-15T04:49:34;92685.34;;;6.69;60.03
11682;BME280;5897;42.640;23.310;2023-03-15T04:52:00;92691.00;;;6.71;60.15
11682;BME280;5897;42.640;23.310;2023-03-15T04:54:27;92684.56;;;6.69;59.38
11682;BME280;5897;42.640;23.310;2023-03-15T04:56:54;92688.44;;;6.68;59.85
11682;BME280;5897;42.640;23.310;2023-03-15T04:59:21;92678.34;;;6.72;60.49
11682;BME280;5897;42.640;23.310;2023-03-15T05:01:48;92674.59;;;6.69;60.51
11682;BME280;5897;42.640;23.310;2023-03-15T05:04:16;92688.03;;;6.69;59.30
11682;BME280;5897;42.640;23.310;2023-03-15T05:06:43;92690.69;;;6.69;58.36
11682;BME280;5897;42.640;23.310;2023-03-15T05:09:09;92695.31;;;6.69;58.28
11682;BME280;5897;42.640;23.310;2023-03-15T05:11:42;92688.97;;;6.75;58.27
11682;BME280;5897;42.640;23.310;2023-03-15T05:14:09;92688.31;;;6.84;58.02
11682;BME280;5897;42.640;23.310;2023-03-15T05:16:36;92692.38;;;6.88;58.04
11682;BME280;5897;42.640;23.310;2023-03-15T05:19:03;92680.88;;;6.88;57.68
11682;BME280;5897;42.640;23.310;2023-03-15T05:21:31;92681.84;;;6.94;57.88
11682;BME280;5897;42.640;23.310;2023-03-15T05:23:58;92685.28;;;6.94;57.71
11682;BME280;5897;42.640;23.310;2023-03-15T05:26:25;92675.94;;;6.99;57.31
11682;BME280;5897;42.640;23.310;2023-03-15T05:28:51;92674.97;;;7.05;57.22
11682;BME280;5897;42.640;23.310;2023-03-15T05:31:18;92676.34;;;7.10;57.77
11682;BME280;5897;42.640;23.310;2023-03-15T05:33:45;92676.84;;;7.17;57.56
11682;BME280;5897;42.640;23.310;2023-03-15T05:36:12;92675.59;;;7.09;57.22
11682;BME280;5897;42.640;23.310;2023-03-15T05:38:41;92671.47;;;7.17;56.95
11682;BME280;5897;42.640;23.310;2023-03-15T05:41:07;92668.25;;;7.22;57.32
11682;BME280;5897;42.640;23.310;2023-03-15T05:43:34;92675.13;;;7.23;57.88
11682;BME280;5897;42.640;23.310;2023-03-15T05:46:01;92671.13;;;7.28;57.97
11682;BME280;5897;42.640;23.310;2023-03-15T05:48:28;92671.03;;;7.31;57.69
11682;BME280;5897;42.640;23.310;2023-03-15T05:50:56;92664.97;;;7.40;57.01
11682;BME280;5897;42.640;23.310;2023-03-15T05:53:23;92669.88;;;7.41;57.67
11682;BME280;5897;42.640;23.310;2023-03-15T05:55:51;92675.78;;;7.49;58.44
11682;BME280;5897;42.640;23.310;2023-03-15T05:58:18;92670.72;;;7.51;58.54
11682;BME280;5897;42.640;23.310;2023-03-15T06:00:45;92680.41;;;7.48;58.43
11682;BME280;5897;42.640;23.310;2023-03-15T06:03:13;92678.16;;;7.47;57.54
11682;BME280;5897;42.640;23.310;2023-03-15T06:05:40;92660.97;;;7.44;54.61
11682;BME280;5897;42.640;23.310;2023-03-15T06:08:07;92668.91;;;7.69;53.54
11682;BME280;5897;42.640;23.310;2023-03-15T06:10:34;92663.66;;;7.87;52.96
11682;BME280;5897;42.640;23.310;2023-03-15T06:13:03;92665.13;;;8.10;52.15
11682;BME280;5897;42.640;23.310;2023-03-15T06:15:30;92667.78;;;8.22;51.42
11682;BME280;5897;42.640;23.310;2023-03-15T06:17:57;92659.09;;;8.27;50.85
11682;BME280;5897;42.640;23.310;2023-03-15T06:20:24;92662.97;;;8.48;50.41
11682;BME280;5897;42.640;23.310;2023-03-15T06:22:51;92676.56;;;8.53;49.87
11682;BME280;5897;42.640;23.310;2023-03-15T06:25:18;92673.31;;;8.58;49.54
11682;BME280;5897;42.640;23.310;2023-03-15T06:27:45;92670.03;;;8.63;49.89
11682;BME280;5897;42.640;23.310;2023-03-15T06:30:14;92665.13;;;8.71;50.09
11682;BME280;5897;42.640;23.310;2023-03-15T06:32:41;92655.13;;;8.89;51.25
11682;BME280;5897;42.640;23.310;2023-03-15T06:35:08;92650.97;;;8.97;50.42
11682;BME280;5897;42.640;23.310;2023-03-15T06:37:35;92664.44;;;9.06;48.79
11682;BME280;5897;42.640;23.310;2023-03-15T06:40:02;92665.34;;;9.12;47.79
11682;BME280;5897;42.640;23.310;2023-03-15T06:42:31;92661.75;;;9.06;46.68
11682;BME280;5897;42.640;23.310;2023-03-15T06:44:59;92658.06;;;9.22;46.02
11682;BME280;5897;42.640;23.310;2023-03-15T06:47:28;92663.00;;;9.32;46.72
11682;BME280;5897;42.640;23.310;2023-03-15T06:49:55;92662.41;;;9.37;46.47
11682;BME280;5897;42.640;23.310;2023-03-15T06:52:22;92667.78;;;9.19;46.48
11682;BME280;5897;42.640;23.310;2023-03-15T06:54:49;92668.38;;;9.41;46.80
11682;BME280;5897;42.640;23.310;2023-03-15T06:57:16;92658.06;;;9.40;46.83
11682;BME280;5897;42.640;23.310;2023-03-15T06:59:43;92651.16;;;9.48;45.87
11682;BME280;5897;42.640;23.310;2023-03-15T07:02:13;92650.88;;;9.37;45.71
11682;BME280;5897;42.640;23.310;2023-03-15T07:04:41;92653.13;;;9.38;45.18
11682;BME280;5897;42.640;23.310;2023-03-15T07:07:09;92643.84;;;9.30;44.82
11682;BME280;5897;42.640;23.310;2023-03-15T07:09:36;92647.41;;;9.72;45.14
11682;BME280;5897;42.640;23.310;2023-03-15T07:12:04;92647.09;;;10.06;45.06
11682;BME280;5897;42.640;23.310;2023-03-15T07:14:32;92645.28;;;10.12;44.43
11682;BME280;5897;42.640;23.310;2023-03-15T07:16:59;92648.38;;;10.29;44.00
11682;BME280;5897;42.640;23.310;2023-03-15T07:19:26;92643.72;;;10.38;44.00
11682;BME280;5897;42.640;23.310;2023-03-15T07:21:54;92656.53;;;10.61;42.78
11682;BME280;5897;42.640;23.310;2023-03-15T07:24:21;92657.66;;;10.78;42.80
11682;BME280;5897;42.640;23.310;2023-03-15T07:26:48;92663.38;;;10.71;43.19
11682;BME280;5897;42.640;23.310;2023-03-15T07:29:19;92654.63;;;11.09;42.12
11682;BME280;5897;42.640;23.310;2023-03-15T07:31:45;92645.63;;;11.35;40.82
11682;BME280;5897;42.640;23.310;2023-03-15T07:34:12;92638.66;;;11.20;40.29
11682;BME280;5897;42.640;23.310;2023-03-15T07:36:40;92651.94;;;11.32;40.04
11682;BME280;5897;42.640;23.310;2023-03-15T07:39:08;92639.13;;;10.86;41.87
11682;BME280;5897;42.640;23.310;2023-03-15T07:41:35;92641.25;;;11.14;42.08
11682;BME280;5897;42.640;23.310;2023-03-15T07:44:01;92652.97;;;11.58;41.50
11682;BME280;5897;42.640;23.310;2023-03-15T07:46:29;92646.22;;;11.92;40.48
11682;BME280;5897;42.640;23.310;2023-03-15T07:48:56;92632.34;;;12.27;42.34
11682;BME280;5897;42.640;23.310;2023-03-15T07:51:23;92629.91;;;12.44;38.34
11682;BME280;5897;42.640;23.310;2023-03-15T07:53:49;92635.78;;;12.57;37.94
11682;BME280;5897;42.640;23.310;2023-03-15T07:56:18;92638.41;;;12.51;37.38
11682;BME280;5897;42.640;23.310;2023-03-15T07:58:44;92641.28;;;12.48;36.44
11682;BME280;5897;42.640;23.310;2023-03-15T08:01:11;92629.78;;;12.53;36.52
11682;BME280;5897;42.640;23.310;2023-03-15T08:03:38;92630.00;;;12.49;36.50
11682;BME280;5897;42.640;23.310;2023-03-15T08:06:06;92634.34;;;12.61;36.29
11682;BME280;5897;42.640;23.310;2023-03-15T08:08:33;92634.34;;;12.76;36.36
11682;BME280;5897;42.640;23.310;2023-03-15T08:11:00;92634.16;;;12.79;35.72
11682;BME280;5897;42.640;23.310;2023-03-15T08:13:28;92627.97;;;12.79;34.70
11682;BME280;5897;42.640;23.310;2023-03-15T08:15:55;92618.94;;;12.67;35.80
11682;BME280;5897;42.640;23.310;2023-03-15T08:18:22;92609.56;;;12.83;36.63
11682;BME280;5897;42.640;23.310;2023-03-15T08:20:49;92604.97;;;12.89;36.30
11682;BME280;5897;42.640;23.310;2023-03-15T08:23:16;92614.25;;;13.17;36.34
11682;BME280;5897;42.640;23.310;2023-03-15T08:25:43;92618.72;;;13.20;36.82
11682;BME280;5897;42.640;23.310;2023-03-15T08:28:10;92609.66;;;13.23;35.35
11682;BME280;5897;42.640;23.310;2023-03-15T08:30:39;92608.06;;;13.16;35.85
11682;BME280;5897;42.640;23.310;2023-03-15T08:33:05;92609.97;;;13.10;35.77
11682;BME280;5897;42.640;23.310;2023-03-15T08:35:33;92610.03;;;12.96;35.96
11682;BME280;5897;42.640;23.310;2023-03-15T08:38:00;92601.75;;;13.05;36.41
11682;BME280;5897;42.640;23.310;2023-03-15T08:40:28;92607.25;;;13.30;36.05
11682;BME280;5897;42.640;23.310;2023-03-15T08:42:55;92595.34;;;13.42;35.61
11682;BME280;5897;42.640;23.310;2023-03-15T08:45:23;92588.50;;;13.47;36.16
11682;BME280;5897;42.640;23.310;2023-03-15T08:47:54;92590.91;;;13.90;35.45
11682;BME280;5897;42.640;23.310;2023-03-15T08:50:21;92593.75;;;14.01;34.39
11682;BME280;5897;42.640;23.310;2023-03-15T08:52:48;92603.47;;;13.88;34.50
11682;BME280;5897;42.640;23.310;2023-03-15T08:55:15;92610.78;;;13.76;34.61
11682;BME280;5897;42.640;23.310;2023-03-15T08:57:42;92614.66;;;13.50;36.42
11682;BME280;5897;42.640;23.310;2023-03-15T09:00:10;92607.53;;;13.12;36.49
11682;BME280;5897;42.640;23.310;2023-03-15T09:02:44;92614.19;;;13.31;35.65
11682;BME280;5897;42.640;23.310;2023-03-15T09:05:15;92604.41;;;13.39;35.10
11682;BME280;5897;42.640;23.310;2023-03-15T09:07:42;92610.03;;;13.76;36.45
11682;BME280;5897;42.640;23.310;2023-03-15T09:10:11;92611.38;;;13.86;34.42
11682;BME280;5897;42.640;23.310;2023-03-15T09:12:39;92612.78;;;13.81;34.16
11682;BME280;5897;42.640;23.310;2023-03-15T09:15:07;92611.69;;;13.68;34.31
11682;BME280;5897;42.640;23.310;2023-03-15T09:17:34;92607.59;;;13.38;34.34
11682;BME280;5897;42.640;23.310;2023-03-15T09:20:01;92615.59;;;13.27;34.70
11682;BME280;5897;42.640;23.310;2023-03-15T09:22:33;92619.78;;;13.08;35.43
11682;BME280;5897;42.640;23.310;2023-03-15T09:25:00;92614.63;;;13.10;35.87
11682;BME280;5897;42.640;23.310;2023-03-15T09:27:29;92613.38;;;12.91;36.34
11682;BME280;5897;42.640;23.310;2023-03-15T09:29:55;92613.16;;;12.94;36.07
11682;BME280;5897;42.640;23.310;2023-03-15T09:32:22;92609.63;;;13.03;36.31
11682;BME280;5897;42.640;23.310;2023-03-15T09:34:49;92613.84;;;13.24;36.63
11682;BME280;5897;42.640;23.310;2023-03-15T09:37:16;92607.16;;;13.19;36.96
11682;BME280;5897;42.640;23.310;2023-03-15T09:39:46;92591.88;;;13.42;36.68
11682;BME280;5897;42.640;23.310;2023-03-15T09:42:17;92598.00;;;13.82;36.04
11682;BME280;5897;42.640;23.310;2023-03-15T09:44:49;92595.09;;;13.86;35.76
11682;BME280;5897;42.640;23.310;2023-03-15T09:47:25;92585.72;;;13.67;35.90
11682;BME280;5897;42.640;23.310;2023-03-15T09:49:56;92583.31;;;13.49;35.60
11682;BME280;5897;42.640;23.310;2023-03-15T09:52:33;92579.25;;;13.59;35.90
11682;BME280;5897;42.640;23.310;2023-03-15T09:55:10;92580.47;;;13.58;36.10
11682;BME280;5897;42.640;23.310;2023-03-15T09:57:42;92571.88;;;13.39;36.51
11682;BME280;5897;42.640;23.310;2023-03-15T10:00:13;92580.97;;;13.36;36.74
11682;BME280;5897;42.640;23.310;2023-03-15T10:02:44;92586.06;;;13.29;36.56
11682;BME280;5897;42.640;23.310;2023-03-15T10:05:19;92587.66;;;13.21;37.02
11682;BME280;5897;42.640;23.310;2023-03-15T10:07:46;92591.47;;;13.09;36.78
11682;BME280;5897;42.640;23.310;2023-03-15T10:10:17;92585.78;;;13.07;36.71
11682;BME280;5897;42.640;23.310;2023-03-15T10:12:50;92583.94;;;13.18;37.67
11682;BME280;5897;42.640;23.310;2023-03-15T10:15:28;92582.38;;;13.32;37.31
11682;BME280;5897;42.640;23.310;2023-03-15T10:20:56;92587.13;;;13.37;36.85
11682;BME280;5897;42.640;23.310;2023-03-15T10:23:34;92582.31;;;13.26;36.90
11682;BME280;5897;42.640;23.310;2023-03-15T10:26:06;92588.34;;;13.16;36.99
11682;BME280;5897;42.640;23.310;2023-03-15T10:28:37;92579.91;;;12.94;36.94
11682;BME280;5897;42.640;23.310;2023-03-15T10:31:11;92565.31;;;13.06;42.01
11682;BME280;5897;42.640;23.310;2023-03-15T10:33:39;92579.28;;;13.19;40.85
11682;BME280;5897;42.640;23.310;2023-03-15T10:36:13;92571.00;;;13.08;38.11
11682;BME280;5897;42.640;23.310;2023-03-15T10:38:40;92581.03;;;13.02;38.20
11682;BME280;5897;42.640;23.310;2023-03-15T10:41:10;92581.50;;;12.86;38.02
11682;BME280;5897;42.640;23.310;2023-03-15T10:43:39;92583.53;;;12.71;38.90
11682;BME280;5897;42.640;23.310;2023-03-15T10:46:07;92583.25;;;12.69;38.54
11682;BME280;5897;42.640;23.310;2023-03-15T10:48:36;92573.63;;;12.68;38.51
11682;BME280;5897;42.640;23.310;2023-03-15T10:51:06;92575.97;;;12.60;38.12
11682;BME280;5897;42.640;23.310;2023-03-15T10:53:33;92578.63;;;12.55;38.65
11682;BME280;5897;42.640;23.310;2023-03-15T10:56:02;92589.16;;;12.53;39.12
11682;BME280;5897;42.640;23.310;2023-03-15T10:58:40;92576.19;;;12.57;39.53
11682;BME280;5897;42.640;23.310;2023-03-15T11:01:12;92572.00;;;12.41;38.91
11682;BME280;5897;42.640;23.310;2023-03-15T11:04:00;92565.97;;;12.32;39.16
11682;BME280;5897;42.640;23.310;2023-03-15T11:06:28;92575.38;;;12.36;40.02
11682;BME280;5897;42.640;23.310;2023-03-15T11:09:07;92573.97;;;12.41;40.87
11682;BME280;5897;42.640;23.310;2023-03-15T11:11:52;92567.63;;;12.44;39.45
11682;BME280;5897;42.640;23.310;2023-03-15T11:14:20;92565.97;;;12.32;39.46
11682;BME280;5897;42.640;23.310;2023-03-15T11:16:51;92569.69;;;12.34;39.18
11682;BME280;5897;42.640;23.310;2023-03-15T11:19:21;92557.28;;;12.28;38.65
11682;BME280;5897;42.640;23.310;2023-03-15T11:21:49;92565.31;;;12.37;39.61
11682;BME280;5897;42.640;23.310;2023-03-15T11:24:24;92561.75;;;12.45;39.84
11682;BME280;5897;42.640;23.310;2023-03-15T11:26:53;92559.31;;;12.47;39.92
11682;BME280;5897;42.640;23.310;2023-03-15T11:29:24;92569.75;;;12.54;39.90
11682;BME280;5897;42.640;23.310;2023-03-15T11:31:53;92574.13;;;12.52;39.57
11682;BME280;5897;42.640;23.310;2023-03-15T11:34:30;92566.16;;;12.63;40.00
11682;BME280;5897;42.640;23.310;2023-03-15T11:37:04;92556.63;;;12.67;39.74
11682;BME280;5897;42.640;23.310;2023-03-15T11:39:38;92542.69;;;12.40;40.93
11682;BME280;5897;42.640;23.310;2023-03-15T11:42:13;92556.19;;;12.54;41.22
11682;BME280;5897;42.640;23.310;2023-03-15T11:44:45;92557.03;;;12.60;41.89
11682;BME280;5897;42.640;23.310;2023-03-15T11:47:18;92559.16;;;12.71;41.98
11682;BME280;5897;42.640;23.310;2023-03-15T11:49:49;92555.16;;;12.86;40.14
11682;BME280;5897;42.640;23.310;2023-03-15T11:52:17;92548.03;;;12.69;40.16
11682;BME280;5897;42.640;23.310;2023-03-15T11:54:46;92553.22;;;12.52;41.41
11682;BME280;5897;42.640;23.310;2023-03-15T11:57:35;92550.38;;;12.61;41.29
11682;BME280;5897;42.640;23.310;2023-03-15T12:00:19;92546.47;;;12.62;41.74
11682;BME280;5897;42.640;23.310;2023-03-15T12:02:49;92555.50;;;12.74;40.33
11682;BME280;5897;42.640;23.310;2023-03-15T12:05:43;92555.75;;;12.76;41.54
11682;BME280;5897;42.640;23.310;2023-03-15T12:08:20;92538.63;;;12.84;42.62
11682;BME280;5897;42.640;23.310;2023-03-15T12:10:50;92527.97;;;12.81;43.61
11682;BME280;5897;42.640;23.310;2023-03-15T12:13:28;92532.72;;;12.86;43.96
11682;BME280;5897;42.640;23.310;2023-03-15T12:15:57;92533.53;;;12.37;45.31
11682;BME280;5897;42.640;23.310;2023-03-15T12:18:37;92500.31;;;12.37;44.40
11682;BME280;5897;42.640;23.310;2023-03-15T12:21:08;92528.03;;;12.46;44.71
11682;BME280;5897;42.640;23.310;2023-03-15T12:23:43;92520.09;;;12.43;45.36
11682;BME280;5897;42.640;23.310;2023-03-15T12:26:37;92527.41;;;12.57;44.27
11682;BME280;5897;42.640;23.310;2023-03-15T12:29:11;92527.81;;;12.50;44.03
11682;BME280;5897;42.640;23.310;2023-03-15T12:31:48;92529.50;;;12.47;45.05
11682;BME280;5897;42.640;23.310;2023-03-15T12:34:24;92502.63;;;12.44;44.98
11682;BME280;5897;42.640;23.310;2023-03-15T12:36:55;92512.34;;;12.36;46.47
11682;BME280;5897;42.640;23.310;2023-03-15T12:39:36;92502.38;;;12.27;46.51
11682;BME280;5897;42.640;23.310;2023-03-15T12:42:04;92516.50;;;12.17;47.01
11682;BME280;5897;42.640;23.310;2023-03-15T12:44:40;92520.13;;;12.28;46.96
11682;BME280;5897;42.640;23.310;2023-03-15T12:47:09;92501.84;;;12.23;46.22
11682;BME280;5897;42.640;23.310;2023-03-15T12:49:38;92521.63;;;12.29;46.84
11682;BME280;5897;42.640;23.310;2023-03-15T12:52:26;92514.63;;;12.23;46.84
11682;BME280;5897;42.640;23.310;2023-03-15T12:55:02;92511.56;;;12.15;46.72
11682;BME280;5897;42.640;23.310;2023-03-15T12:57:36;92510.66;;;12.04;47.32
11682;BME280;5897;42.640;23.310;2023-03-15T13:00:10;92516.88;;;12.10;47.20
11682;BME280;5897;42.640;23.310;2023-03-15T13:02:45;92516.44;;;12.12;46.98
11682;BME280;5897;42.640;23.310;2023-03-15T13:05:21;92513.22;;;12.13;46.48
11682;BME280;5897;42.640;23.310;2023-03-15T13:07:55;92504.44;;;12.18;46.45
11682;BME280;5897;42.640;23.310;2023-03-15T13:10:36;92491.56;;;12.13;44.85
11682;BME280;5897;42.640;23.310;2023-03-15T13:13:21;92468.63;;;12.08;45.13
11682;BME280;5897;42.640;23.310;2023-03-15T13:16:00;92491.75;;;12.24;45.71
11682;BME280;5897;42.640;23.310;2023-03-15T13:18:40;92491.63;;;12.33;45.22